Hillsboro, North Carolina
Current Conditions -  °F | °C
As of 4:56 AM on Sunday 26 Oct 2014 (Local Time) from KIGX Reporting Station
Clear Clear  
Wind Chill: 59°   Ceiling: Unl
Heat Index: 59°   Visibility: 10mi
Dew Point: 48°   Wind: 8mph
Humidity: 67%   Direction: 270°W
Pressure: 29.84"   Gusts: NA
Location:  36.0821°N, 79.0824°W
Report Text: KIGX 260856Z AUTO 27007KT 10SM CLR 15/09 A2984 RMK AO2 SLP099 T01500089 55004
Loading
Personal Weather Stations






























Interactive Weather Map
Tropical Storm Tracking
New forecast layout! Learn more

10-Day Weather Forecast

Advertisements
Track Severe Weather on mobile